Time;durP1;ratioP1;P1;durP2;ratioP2;P2;SDS_P1;SDS_P2;PMS_P1;PMS_P2;Temp;Humidity;BMP_temperature;BMP_pressure;BME280_temperature;BME280_humidity;BME280_pressure;Samples;Min_cycle;Max_cycle;Signal;HPM_P1;HPM_P2
2023/08/08 00:00:25;;;;;;;2.28;1.50;;;16.10;99.90;;;;;;4133646;28;20042;-65
2023/08/08 00:02:26;;;;;;;3.05;1.80;;;16.00;99.90;;;;;;4134735;28;20466;-65
2023/08/08 00:04:26;;;;;;;1.90;1.45;;;16.10;99.90;;;;;;4136043;28;20045;-65
2023/08/08 00:06:27;;;;;;;2.83;1.80;;;16.00;99.90;;;;;;4151081;28;20092;-65
2023/08/08 00:08:27;;;;;;;4.10;1.65;;;16.00;99.90;;;;;;4149438;28;20053;-61
2023/08/08 00:10:28;;;;;;;1.90;1.48;;;16.00;99.90;;;;;;4143502;28;20044;-62
2023/08/08 00:12:28;;;;;;;3.53;1.90;;;16.00;99.90;;;;;;4143896;28;20032;-62
2023/08/08 00:14:29;;;;;;;3.97;1.92;;;15.90;99.90;;;;;;4149068;28;20026;-61
2023/08/08 00:16:30;;;;;;;3.00;1.77;;;15.90;99.90;;;;;;4150927;28;20072;-62
2023/08/08 00:18:30;;;;;;;5.05;1.63;;;15.90;99.90;;;;;;4153845;28;20098;-62
2023/08/08 00:20:31;;;;;;;4.55;1.65;;;15.90;99.90;;;;;;4142205;28;20030;-62
2023/08/08 00:22:32;;;;;;;3.05;1.63;;;15.80;99.90;;;;;;4136826;28;20077;-62
2023/08/08 00:24:32;;;;;;;1.92;1.65;;;15.80;99.90;;;;;;4145246;28;20034;-62
2023/08/08 00:26:34;;;;;;;3.33;1.70;;;15.80;99.90;;;;;;4147210;28;20446;-62
2023/08/08 00:28:34;;;;;;;2.45;1.55;;;15.80;99.90;;;;;;4131781;28;20056;-62
2023/08/08 00:30:35;;;;;;;2.90;1.92;;;15.80;99.90;;;;;;4139914;28;21737;-62
2023/08/08 00:32:35;;;;;;;4.60;1.95;;;15.80;99.90;;;;;;4148479;28;20038;-62
2023/08/08 00:34:36;;;;;;;3.15;1.80;;;15.80;99.90;;;;;;4142292;28;20517;-62
2023/08/08 00:36:37;;;;;;;2.28;1.55;;;15.70;99.90;;;;;;4141622;28;20036;-62
2023/08/08 00:38:37;;;;;;;2.20;1.85;;;15.70;99.90;;;;;;4156988;28;20500;-62
2023/08/08 00:40:38;;;;;;;2.22;1.88;;;15.70;99.90;;;;;;4146669;28;20045;-62
2023/08/08 00:42:38;;;;;;;5.28;2.08;;;15.70;99.90;;;;;;4136195;28;20040;-61
2023/08/08 00:44:40;;;;;;;2.80;1.65;;;15.60;99.90;;;;;;4140311;28;20091;-62
2023/08/08 00:46:41;;;;;;;3.07;1.80;;;15.60;99.90;;;;;;4148120;28;20542;-62
2023/08/08 00:48:42;;;;;;;2.10;1.52;;;15.70;99.90;;;;;;4156690;28;20061;-62
2023/08/08 00:50:44;;;;;;;4.07;2.13;;;15.60;99.90;;;;;;4151403;28;20088;-62
2023/08/08 00:52:45;;;;;;;2.70;1.85;;;15.60;99.90;;;;;;4157709;28;20156;-62
2023/08/08 00:54:45;;;;;;;3.95;1.88;;;15.70;99.90;;;;;;4157449;28;20476;-62
2023/08/08 00:56:46;;;;;;;5.63;1.98;;;15.70;99.90;;;;;;4154683;28;20045;-62
2023/08/08 00:58:50;;;;;;;2.10;1.58;;;15.70;99.90;;;;;;4158375;28;20044;-62
2023/08/08 01:00:54;;;;;;;3.00;1.67;;;15.70;99.90;;;;;;4153665;28;20445;-62
2023/08/08 01:02:55;;;;;;;3.22;1.70;;;15.60;99.90;;;;;;4152144;28;20041;-62
2023/08/08 01:04:55;;;;;;;2.30;1.60;;;15.70;99.90;;;;;;4159699;28;20083;-62
2023/08/08 01:07:24;;;;;;;2.28;1.63;;;15.70;99.90;;;;;;4149583;28;20076;-63
2023/08/08 01:09:32;;;;;;;2.80;1.90;;;15.70;99.90;;;;;;4154787;28;20033;-63
2023/08/08 01:11:34;;;;;;;1.70;1.60;;;15.70;99.90;;;;;;4154474;28;20033;-63
2023/08/08 01:13:37;;;;;;;3.00;2.00;;;15.60;99.90;;;;;;4151351;28;20041;-63
2023/08/08 01:15:38;;;;;;;2.08;1.58;;;15.60;99.90;;;;;;4152224;28;20707;-63
2023/08/08 01:17:39;;;;;;;1.80;1.42;;;15.70;99.90;;;;;;4150988;28;20078;-63
2023/08/08 01:19:41;;;;;;;3.42;1.85;;;15.70;99.90;;;;;;4155575;28;20040;-63
2023/08/08 01:21:45;;;;;;;3.42;1.88;;;15.60;99.90;;;;;;4157009;28;20033;-63
2023/08/08 01:23:53;;;;;;;1.98;1.60;;;15.60;99.90;;;;;;4134437;28;20041;-63
2023/08/08 01:25:54;;;;;;;2.85;1.70;;;15.60;99.90;;;;;;4136748;28;20533;-63
2023/08/08 01:27:54;;;;;;;4.88;2.10;;;15.60;99.90;;;;;;4141952;28;20042;-63
2023/08/08 01:29:55;;;;;;;2.67;1.55;;;15.60;99.90;;;;;;4139458;28;20030;-63
2023/08/08 01:31:55;;;;;;;3.83;1.67;;;15.60;99.90;;;;;;4142138;28;20406;-64
2023/08/08 01:33:56;;;;;;;3.55;1.58;;;15.60;99.90;;;;;;4131578;28;20050;-63
2023/08/08 01:36:04;;;;;;;3.53;1.70;;;15.60;99.90;;;;;;4142582;28;20513;-63
2023/08/08 01:38:14;;;;;;;3.50;1.80;;;15.60;99.90;;;;;;4157816;28;20092;-63
2023/08/08 01:40:17;;;;;;;2.47;1.67;;;15.60;99.90;;;;;;4150083;28;20045;-64
2023/08/08 01:42:21;;;;;;;3.22;1.52;;;15.50;99.90;;;;;;4144271;28;20030;-63
2023/08/08 01:44:25;;;;;;;4.63;1.85;;;15.60;99.90;;;;;;4151632;28;20053;-64
2023/08/08 01:46:26;;;;;;;4.95;1.70;;;15.60;99.90;;;;;;4144591;28;20038;-63
2023/08/08 01:48:27;;;;;;;1.95;1.60;;;15.60;99.90;;;;;;4158677;28;20068;-63
2023/08/08 01:50:28;;;;;;;2.40;1.40;;;15.60;99.90;;;;;;4144977;28;20537;-63
2023/08/08 01:52:29;;;;;;;4.85;1.63;;;15.60;99.90;;;;;;4153211;28;20105;-63
2023/08/08 01:54:29;;;;;;;4.75;1.95;;;15.60;99.90;;;;;;4148201;28;20041;-63
2023/08/08 01:56:30;;;;;;;2.53;1.60;;;15.60;99.90;;;;;;4153352;28;20061;-63
2023/08/08 01:58:30;;;;;;;2.78;1.60;;;15.60;99.90;;;;;;4155358;28;20371;-63
2023/08/08 02:00:31;;;;;;;2.10;1.77;;;15.60;99.90;;;;;;4154014;28;20041;-63
2023/08/08 02:02:32;;;;;;;3.00;1.70;;;15.60;99.90;;;;;;4141001;28;20054;-63
2023/08/08 02:04:32;;;;;;;5.05;1.60;;;15.60;99.90;;;;;;4130998;28;20494;-63
2023/08/08 02:06:33;;;;;;;3.80;1.90;;;15.60;99.90;;;;;;4144993;28;20038;-63
2023/08/08 02:08:34;;;;;;;2.25;1.60;;;15.60;99.90;;;;;;4145203;28;20025;-63
2023/08/08 02:10:34;;;;;;;3.28;1.67;;;15.60;99.90;;;;;;4138155;28;20046;-63
2023/08/08 02:12:35;;;;;;;4.07;1.65;;;15.60;99.90;;;;;;4144725;28;20108;-63
2023/08/08 02:14:35;;;;;;;3.90;2.03;;;15.60;99.90;;;;;;4150894;28;20033;-63
2023/08/08 02:16:36;;;;;;;5.93;2.20;;;15.50;99.90;;;;;;4146773;28;20382;-63
2023/08/08 02:18:40;;;;;;;7.63;2.50;;;15.50;99.90;;;;;;4140797;28;20042;-67
2023/08/08 02:20:41;;;;;;;2.42;1.80;;;15.50;99.90;;;;;;4149886;28;20037;-67
2023/08/08 02:22:41;;;;;;;3.05;1.80;;;15.50;99.90;;;;;;4151198;28;20061;-67
2023/08/08 02:24:42;;;;;;;3.75;2.05;;;15.50;99.90;;;;;;4139283;28;20038;-67
2023/08/08 02:26:42;;;;;;;4.70;2.08;;;15.50;99.90;;;;;;4139069;28;20149;-67
2023/08/08 02:28:43;;;;;;;4.95;2.20;;;15.50;99.90;;;;;;4148483;28;20536;-67
2023/08/08 02:30:44;;;;;;;3.60;1.75;;;15.60;99.90;;;;;;4137826;28;20499;-67
2023/08/08 02:32:45;;;;;;;4.95;1.90;;;15.60;99.90;;;;;;4143009;28;20057;-66
2023/08/08 02:34:45;;;;;;;3.58;1.75;;;15.60;99.90;;;;;;4139733;28;20038;-67
2023/08/08 02:36:46;;;;;;;4.25;1.90;;;15.60;99.90;;;;;;4131372;28;20045;-68
2023/08/08 02:38:46;;;;;;;3.80;1.77;;;15.60;99.90;;;;;;4133671;28;20049;-68
2023/08/08 02:40:47;;;;;;;5.88;2.20;;;15.60;99.90;;;;;;4138211;28;20042;-67
2023/08/08 02:42:48;;;;;;;3.75;1.85;;;15.70;99.90;;;;;;4140918;28;20178;-68
2023/08/08 02:44:48;;;;;;;5.47;1.88;;;15.60;99.90;;;;;;4141385;28;20044;-68
2023/08/08 02:46:49;;;;;;;3.35;1.88;;;15.60;99.90;;;;;;4135697;28;20046;-67
2023/08/08 02:48:49;;;;;;;3.53;1.73;;;15.50;99.90;;;;;;4141616;28;20054;-67
2023/08/08 02:50:50;;;;;;;2.83;1.83;;;15.50;99.90;;;;;;4135369;28;20037;-67
2023/08/08 02:52:51;;;;;;;5.13;1.75;;;15.60;99.90;;;;;;4141187;28;20050;-67
2023/08/08 02:54:52;;;;;;;3.22;1.88;;;15.50;99.90;;;;;;4138975;28;20041;-67
2023/08/08 02:56:52;;;;;;;2.25;1.52;;;15.50;99.90;;;;;;4137732;28;20041;-68
2023/08/08 02:58:53;;;;;;;5.18;1.85;;;15.50;99.90;;;;;;4143545;28;20030;-68
2023/08/08 03:00:54;;;;;;;3.22;1.90;;;15.50;99.90;;;;;;4138893;28;20096;-68
2023/08/08 03:02:54;;;;;;;4.00;2.17;;;15.50;99.90;;;;;;4146014;28;20045;-68
2023/08/08 03:04:55;;;;;;;5.05;1.90;;;15.50;99.90;;;;;;4141914;28;20760;-67
2023/08/08 03:06:56;;;;;;;3.88;2.10;;;15.50;99.90;;;;;;4131574;28;20073;-69
2023/08/08 03:08:57;;;;;;;2.35;1.48;;;15.60;99.90;;;;;;4144090;28;20112;-69
2023/08/08 03:10:57;;;;;;;5.65;2.08;;;15.60;99.90;;;;;;4143239;28;20081;-69
2023/08/08 03:12:58;;;;;;;3.25;1.90;;;15.60;99.90;;;;;;4146534;28;20068;-69
2023/08/08 03:14:58;;;;;;;6.05;2.30;;;15.60;99.90;;;;;;4144667;28;20037;-69
2023/08/08 03:16:59;;;;;;;4.30;2.05;;;15.60;99.90;;;;;;4136901;28;20624;-69
2023/08/08 03:19:00;;;;;;;3.80;1.80;;;15.60;99.90;;;;;;4147416;28;20046;-69
2023/08/08 03:21:00;;;;;;;6.35;2.22;;;15.60;99.90;;;;;;4141992;28;20068;-69
2023/08/08 03:23:01;;;;;;;4.30;2.17;;;15.60;99.90;;;;;;4148864;28;20037;-69
2023/08/08 03:25:04;;;;;;;6.00;2.30;;;15.60;99.90;;;;;;4153023;28;20042;-68
2023/08/08 03:27:05;;;;;;;3.72;1.70;;;15.60;99.90;;;;;;4132619;28;20038;-68
2023/08/08 03:29:09;;;;;;;4.97;2.13;;;15.50;99.90;;;;;;4137037;28;20058;-69
2023/08/08 03:31:10;;;;;;;4.40;1.98;;;15.50;99.90;;;;;;4151369;28;20124;-69
2023/08/08 03:33:10;;;;;;;3.47;1.83;;;15.50;99.90;;;;;;4143586;28;20976;-69
2023/08/08 03:35:11;;;;;;;7.40;2.05;;;15.50;99.90;;;;;;4142718;28;20114;-70
2023/08/08 03:37:12;;;;;;;5.13;1.92;;;15.50;99.90;;;;;;4142185;28;20034;-68
2023/08/08 03:39:12;;;;;;;9.57;2.50;;;15.50;99.90;;;;;;4143304;28;20033;-68
2023/08/08 03:41:13;;;;;;;4.20;1.98;;;15.50;99.90;;;;;;4139427;28;20515;-69
2023/08/08 03:43:14;;;;;;;5.05;2.20;;;15.40;99.90;;;;;;4142704;28;20040;-69
2023/08/08 03:45:14;;;;;;;3.65;1.92;;;15.40;99.90;;;;;;4135282;28;20030;-69
2023/08/08 03:47:15;;;;;;;3.28;2.13;;;15.50;99.90;;;;;;4137779;28;20501;-69
2023/08/08 03:49:16;;;;;;;5.05;2.33;;;15.40;99.90;;;;;;4155675;28;20033;-68
2023/08/08 03:51:17;;;;;;;5.93;2.05;;;15.40;99.90;;;;;;4133188;28;20494;-68
2023/08/08 03:53:17;;;;;;;5.82;2.35;;;15.30;99.90;;;;;;4156045;28;20095;-68
2023/08/08 03:55:18;;;;;;;4.63;1.73;;;15.30;99.90;;;;;;4158723;28;20037;-68
2023/08/08 03:57:18;;;;;;;3.53;1.80;;;15.30;99.90;;;;;;4144258;28;20034;-68
2023/08/08 03:59:19;;;;;;;5.63;1.90;;;15.30;99.90;;;;;;4144170;28;20030;-68
2023/08/08 04:01:20;;;;;;;5.97;2.47;;;15.30;99.90;;;;;;4136926;28;20035;-69
2023/08/08 04:03:20;;;;;;;4.10;2.00;;;15.20;99.90;;;;;;4129542;28;20573;-69
2023/08/08 04:05:21;;;;;;;4.57;2.03;;;15.30;99.90;;;;;;4150700;28;20516;-69
2023/08/08 04:07:21;;;;;;;3.78;2.15;;;15.20;99.90;;;;;;4161688;28;20033;-69
2023/08/08 04:09:22;;;;;;;4.97;2.20;;;15.30;99.90;;;;;;4155032;28;20029;-69
2023/08/08 04:11:23;;;;;;;5.80;2.08;;;15.20;99.90;;;;;;4134836;28;20037;-69
2023/08/08 04:13:23;;;;;;;5.38;2.00;;;15.20;99.90;;;;;;4140885;28;20041;-68
2023/08/08 04:15:24;;;;;;;6.07;2.30;;;15.30;99.90;;;;;;4146472;28;20509;-68
2023/08/08 04:17:24;;;;;;;7.88;2.42;;;15.30;99.90;;;;;;4144526;28;20092;-68
2023/08/08 04:19:25;;;;;;;5.22;2.38;;;15.20;99.90;;;;;;4145738;28;20044;-68
2023/08/08 04:21:28;;;;;;;4.07;2.00;;;15.30;99.90;;;;;;4144092;28;20037;-68
2023/08/08 04:23:29;;;;;;;3.42;2.00;;;15.20;99.90;;;;;;4138600;28;20033;-69
2023/08/08 04:25:30;;;;;;;5.28;2.22;;;15.20;99.90;;;;;;4145362;28;20049;-69
2023/08/08 04:27:30;;;;;;;5.03;2.33;;;15.20;99.90;;;;;;4139726;28;20513;-69
2023/08/08 04:29:31;;;;;;;8.07;2.35;;;15.20;99.90;;;;;;4144705;28;20647;-69
2023/08/08 04:31:31;;;;;;;3.75;1.88;;;15.20;99.90;;;;;;4139668;28;20116;-69
2023/08/08 04:33:32;;;;;;;5.88;2.60;;;15.20;99.90;;;;;;4152656;28;20045;-69
2023/08/08 04:35:33;;;;;;;6.07;2.63;;;15.20;99.90;;;;;;4149758;28;20448;-69
2023/08/08 04:37:33;;;;;;;6.88;2.67;;;15.20;99.90;;;;;;4153015;28;20120;-69
2023/08/08 04:39:34;;;;;;;3.90;1.88;;;15.10;99.90;;;;;;4150421;28;20037;-69
2023/08/08 04:41:34;;;;;;;3.53;1.80;;;15.20;99.90;;;;;;4152292;28;20040;-70
2023/08/08 04:43:35;;;;;;;6.22;2.47;;;15.20;99.90;;;;;;4152678;28;20044;-69
2023/08/08 04:45:36;;;;;;;8.40;2.65;;;15.30;99.90;;;;;;4152343;28;20037;-69
2023/08/08 04:47:36;;;;;;;4.68;2.33;;;15.20;99.90;;;;;;4155634;28;20037;-69
2023/08/08 04:49:37;;;;;;;4.95;2.22;;;15.30;99.90;;;;;;4155671;28;20057;-69
2023/08/08 04:51:37;;;;;;;7.10;2.92;;;15.30;99.90;;;;;;4159304;28;20029;-69
2023/08/08 04:53:38;;;;;;;7.95;3.08;;;15.20;99.90;;;;;;4155750;28;20517;-69
2023/08/08 04:55:39;;;;;;;7.03;2.75;;;15.30;99.90;;;;;;4158755;28;20029;-69
2023/08/08 04:57:39;;;;;;;7.22;2.65;;;15.30;99.90;;;;;;4150551;28;20046;-69
2023/08/08 04:59:40;;;;;;;8.90;3.03;;;15.30;99.90;;;;;;4140903;28;20045;-64
2023/08/08 05:01:41;;;;;;;7.97;2.95;;;15.30;99.90;;;;;;4143247;28;20393;-64
2023/08/08 05:03:41;;;;;;;6.13;2.92;;;15.30;99.90;;;;;;4141555;28;20061;-62
2023/08/08 05:05:44;;;;;;;7.75;3.25;;;15.30;99.90;;;;;;4141449;28;20554;-62
2023/08/08 05:07:45;;;;;;;4.65;2.33;;;15.20;99.90;;;;;;4135987;28;20026;-62
2023/08/08 05:09:45;;;;;;;6.93;2.75;;;15.30;99.90;;;;;;4141769;28;20038;-63
2023/08/08 05:11:46;;;;;;;5.53;2.78;;;15.30;99.90;;;;;;4142030;28;20049;-62
2023/08/08 05:13:47;;;;;;;5.10;2.60;;;15.30;99.90;;;;;;4143854;28;20038;-62
2023/08/08 05:15:48;;;;;;;6.15;2.80;;;15.30;99.90;;;;;;4142606;28;20045;-63
2023/08/08 05:17:48;;;;;;;10.73;3.30;;;15.30;99.90;;;;;;4140673;28;20053;-63
2023/08/08 05:19:49;;;;;;;8.00;2.67;;;15.30;99.90;;;;;;4143629;28;20038;-62
2023/08/08 05:21:49;;;;;;;7.90;3.33;;;15.30;99.90;;;;;;4143492;28;20050;-63
2023/08/08 05:23:50;;;;;;;10.60;4.07;;;15.30;99.90;;;;;;4141034;28;20053;-63
2023/08/08 05:25:51;;;;;;;8.35;3.60;;;15.20;99.90;;;;;;4141229;28;20038;-63
2023/08/08 05:27:53;;;;;;;10.15;4.45;;;15.30;99.90;;;;;;4147693;28;20037;-63
2023/08/08 05:29:53;;;;;;;9.75;4.20;;;15.30;99.90;;;;;;4129174;28;20046;-65
2023/08/08 05:31:54;;;;;;;9.82;4.30;;;15.30;99.90;;;;;;4142895;28;20668;-63
2023/08/08 05:33:55;;;;;;;8.52;4.35;;;15.20;99.90;;;;;;4147543;28;20088;-64
2023/08/08 05:35:56;;;;;;;7.50;4.13;;;15.20;99.90;;;;;;4150735;28;20034;-62
2023/08/08 05:37:56;;;;;;;8.65;4.63;;;15.30;99.90;;;;;;4156187;28;20041;-63
2023/08/08 05:39:57;;;;;;;13.50;4.70;;;15.20;99.90;;;;;;4149292;28;20044;-63
2023/08/08 05:41:57;;;;;;;12.07;5.00;;;15.20;99.90;;;;;;4151916;28;20040;-63
2023/08/08 05:43:58;;;;;;;11.73;5.10;;;15.20;99.90;;;;;;4153668;28;20034;-63
2023/08/08 05:45:59;;;;;;;11.18;5.00;;;15.20;99.90;;;;;;4149491;28;20129;-63
2023/08/08 05:48:00;;;;;;;14.45;6.40;;;15.30;99.90;;;;;;4151033;28;20390;-63
2023/08/08 05:50:00;;;;;;;12.57;5.50;;;15.20;99.90;;;;;;4152653;28;20038;-63
2023/08/08 05:52:01;;;;;;;9.50;5.50;;;15.30;99.90;;;;;;4153330;28;20497;-63
2023/08/08 05:54:03;;;;;;;14.52;6.43;;;15.30;99.90;;;;;;4145625;28;20034;-62
2023/08/08 05:56:03;;;;;;;12.90;6.32;;;15.30;99.90;;;;;;4142988;28;20029;-63
2023/08/08 05:58:04;;;;;;;17.75;7.78;;;15.20;99.90;;;;;;4140988;28;20066;-62
2023/08/08 06:00:08;;;;;;;15.18;6.50;;;15.30;99.90;;;;;;4134946;28;20081;-63
2023/08/08 06:02:08;;;;;;;14.45;7.28;;;15.30;99.90;;;;;;4137147;28;20516;-62
2023/08/08 06:04:09;;;;;;;11.00;5.55;;;15.30;99.90;;;;;;4129424;28;20069;-62
2023/08/08 06:06:10;;;;;;;12.32;6.60;;;15.30;99.90;;;;;;4128624;28;20037;-62
2023/08/08 06:08:12;;;;;;;13.57;7.47;;;15.40;99.90;;;;;;4129570;28;20401;-65
2023/08/08 06:10:12;;;;;;;18.35;6.88;;;15.40;99.90;;;;;;4131715;28;20058;-64
2023/08/08 06:12:13;;;;;;;14.07;6.80;;;15.40;99.90;;;;;;4134957;28;20152;-64
2023/08/08 06:14:13;;;;;;;11.40;6.55;;;15.40;99.90;;;;;;4130918;28;20043;-64
2023/08/08 06:16:15;;;;;;;13.68;6.65;;;15.40;99.90;;;;;;4132616;28;20048;-64
2023/08/08 06:18:17;;;;;;;13.50;7.03;;;15.40;99.90;;;;;;4143481;28;20055;-64
2023/08/08 06:20:18;;;;;;;12.37;6.83;;;15.40;99.90;;;;;;4128113;28;20048;-64
2023/08/08 06:22:18;;;;;;;14.50;7.78;;;15.40;99.90;;;;;;4138315;28;20113;-65
2023/08/08 06:24:19;;;;;;;11.00;6.65;;;15.50;99.90;;;;;;4129484;28;20171;-65
2023/08/08 06:26:21;;;;;;;14.65;6.90;;;15.50;99.90;;;;;;4121566;28;20026;-65
2023/08/08 06:28:21;;;;;;;13.80;6.97;;;15.60;99.90;;;;;;4138088;28;20038;-64
2023/08/08 06:30:22;;;;;;;13.30;7.00;;;15.50;99.90;;;;;;4143998;28;20460;-64
2023/08/08 06:32:22;;;;;;;12.25;7.50;;;15.50;99.90;;;;;;4148053;28;20038;-65
2023/08/08 06:34:23;;;;;;;14.35;6.95;;;15.50;99.90;;;;;;4134007;28;20054;-65
2023/08/08 06:36:23;;;;;;;11.13;6.10;;;15.60;99.90;;;;;;4150159;28;20041;-65
2023/08/08 06:38:24;;;;;;;6.50;4.47;;;15.60;99.90;;;;;;4140251;28;20022;-64
2023/08/08 06:40:25;;;;;;;14.48;7.07;;;15.60;99.90;;;;;;4135693;28;20048;-65
2023/08/08 06:42:26;;;;;;;14.40;6.53;;;15.70;99.90;;;;;;4143465;28;20034;-65
2023/08/08 06:44:26;;;;;;;7.63;4.88;;;15.90;99.90;;;;;;4136237;28;21281;-64
2023/08/08 06:46:27;;;;;;;6.95;4.38;;;16.10;99.90;;;;;;4146423;28;20042;-65
2023/08/08 06:48:27;;;;;;;8.32;4.57;;;16.40;99.90;;;;;;4149514;28;20038;-65
2023/08/08 06:50:28;;;;;;;9.32;4.13;;;16.60;99.90;;;;;;4147769;28;20458;-65
2023/08/08 06:52:29;;;;;;;7.85;3.90;;;16.90;99.90;;;;;;4150274;28;20109;-64
2023/08/08 06:54:29;;;;;;;7.15;3.58;;;17.10;99.90;;;;;;4147453;28;20029;-64
2023/08/08 06:56:30;;;;;;;10.73;4.25;;;17.40;99.90;;;;;;4145570;28;20034;-65
2023/08/08 06:58:30;;;;;;;7.10;3.90;;;17.60;99.90;;;;;;4148106;28;20061;-65
2023/08/08 07:00:31;;;;;;;7.75;3.13;;;17.60;99.90;;;;;;4142169;28;20044;-65
2023/08/08 07:02:32;;;;;;;5.85;2.78;;;17.80;99.90;;;;;;4146097;28;20340;-65
2023/08/08 07:04:32;;;;;;;5.85;3.03;;;17.90;99.90;;;;;;4146310;28;20026;-65
2023/08/08 07:06:33;;;;;;;7.10;2.53;;;18.10;99.90;;;;;;4149506;28;20438;-65
2023/08/08 07:08:33;;;;;;;7.70;2.25;;;18.20;99.90;;;;;;4139101;28;20041;-64
2023/08/08 07:10:35;;;;;;;5.68;2.85;;;18.40;99.90;;;;;;4137338;28;20037;-65
2023/08/08 07:12:36;;;;;;;7.65;2.47;;;18.50;99.90;;;;;;4131634;28;20120;-65
2023/08/08 07:14:36;;;;;;;6.45;2.55;;;18.50;99.90;;;;;;4126852;28;20109;-64
2023/08/08 07:16:37;;;;;;;5.25;2.22;;;18.50;99.90;;;;;;4132442;28;21165;-65
2023/08/08 07:18:38;;;;;;;6.22;2.70;;;18.50;99.90;;;;;;4132812;28;20031;-68
2023/08/08 07:20:39;;;;;;;7.93;2.30;;;18.50;99.90;;;;;;4129519;28;20045;-68
2023/08/08 07:22:39;;;;;;;6.10;2.65;;;18.40;99.90;;;;;;4136781;28;20153;-67
2023/08/08 07:24:40;;;;;;;9.20;2.47;;;18.30;99.90;;;;;;4135100;28;20351;-68
2023/08/08 07:26:41;;;;;;;6.10;3.10;;;18.20;99.90;;;;;;4129022;28;20121;-68
2023/08/08 07:28:41;;;;;;;7.25;2.55;;;18.20;99.90;;;;;;4137550;28;20042;-68
2023/08/08 07:30:42;;;;;;;7.63;2.80;;;18.20;99.90;;;;;;4135630;28;20034;-67
2023/08/08 07:32:42;;;;;;;7.65;2.53;;;18.10;99.90;;;;;;4136968;28;20030;-67
2023/08/08 07:34:43;;;;;;;9.23;2.88;;;18.10;99.90;;;;;;4136450;28;20133;-68
2023/08/08 07:36:44;;;;;;;7.32;2.50;;;18.00;99.90;;;;;;4136740;28;20045;-68
2023/08/08 07:38:44;;;;;;;7.82;2.50;;;18.10;99.90;;;;;;4128697;28;20041;-68
2023/08/08 07:40:45;;;;;;;5.30;2.28;;;18.00;99.90;;;;;;4131332;28;20271;-67
2023/08/08 07:42:48;;;;;;;6.47;2.42;;;17.90;99.90;;;;;;4135871;28;20046;-67
2023/08/08 07:44:48;;;;;;;7.35;2.20;;;18.00;99.90;;;;;;4137428;28;20600;-67
2023/08/08 07:46:49;;;;;;;5.40;2.30;;;18.10;99.90;;;;;;4141321;28;20045;-67
2023/08/08 07:48:50;;;;;;;11.15;2.80;;;18.10;99.90;;;;;;4130215;28;20050;-67
2023/08/08 07:50:52;;;;;;;9.38;3.22;;;18.00;99.90;;;;;;4132133;28;20137;-68
2023/08/08 07:52:52;;;;;;;5.82;2.45;;;18.00;99.90;;;;;;4131986;28;20069;-68
2023/08/08 07:54:53;;;;;;;8.60;2.92;;;18.00;99.90;;;;;;4130582;28;20067;-68
2023/08/08 07:56:54;;;;;;;8.27;3.10;;;18.00;99.90;;;;;;4127333;28;20104;-68
2023/08/08 07:58:54;;;;;;;11.82;3.17;;;18.00;99.90;;;;;;4130711;28;20060;-67
2023/08/08 08:00:55;;;;;;;6.63;2.58;;;18.00;99.90;;;;;;4138204;28;20041;-68
2023/08/08 08:02:56;;;;;;;12.25;2.78;;;18.10;99.90;;;;;;4139063;28;20053;-68
2023/08/08 08:04:56;;;;;;;6.68;2.55;;;18.10;99.90;;;;;;4139014;28;20031;-67
2023/08/08 08:06:57;;;;;;;6.70;2.35;;;18.20;99.90;;;;;;4137687;28;20097;-68
2023/08/08 08:08:58;;;;;;;4.70;2.00;;;18.20;99.90;;;;;;4140987;28;20036;-68
2023/08/08 08:10:58;;;;;;;6.78;2.50;;;18.30;99.90;;;;;;4137013;28;20781;-68
2023/08/08 08:12:59;;;;;;;8.23;2.42;;;18.40;99.90;;;;;;4136834;28;20030;-68
2023/08/08 08:15:01;;;;;;;7.68;2.55;;;18.50;99.90;;;;;;4136470;28;20034;-68
2023/08/08 08:17:02;;;;;;;6.10;2.28;;;18.60;99.90;;;;;;4140522;28;20534;-68
2023/08/08 08:19:03;;;;;;;5.90;2.47;;;18.70;99.90;;;;;;4151373;28;20033;-68
2023/08/08 08:21:04;;;;;;;6.10;2.17;;;18.90;99.90;;;;;;4139041;28;20041;-67
2023/08/08 08:23:05;;;;;;;5.15;2.10;;;19.00;99.90;;;;;;4133438;28;20116;-68
2023/08/08 08:25:08;;;;;;;6.57;2.10;;;19.00;99.90;;;;;;4137416;28;20065;-69
2023/08/08 08:27:09;;;;;;;6.30;1.77;;;19.10;99.90;;;;;;4147642;28;20159;-68
2023/08/08 08:29:09;;;;;;;5.30;1.88;;;19.20;99.90;;;;;;4149050;28;20057;-64
2023/08/08 08:31:10;;;;;;;3.72;1.80;;;19.20;99.90;;;;;;4147005;28;20037;-65
2023/08/08 08:33:11;;;;;;;11.18;2.70;;;19.30;99.90;;;;;;4149245;28;20038;-64
2023/08/08 08:35:13;;;;;;;8.13;2.35;;;19.30;99.90;;;;;;4145046;28;20116;-65
2023/08/08 08:37:13;;;;;;;3.03;1.80;;;19.20;99.90;;;;;;4148185;28;20026;-64
2023/08/08 08:39:14;;;;;;;5.30;1.77;;;19.20;99.90;;;;;;4148184;28;20141;-64
2023/08/08 08:41:19;;;;;;;5.40;1.98;;;19.20;99.90;;;;;;4147265;28;20118;-64
2023/08/08 08:43:19;;;;;;;5.03;1.95;;;19.30;99.90;;;;;;4147544;28;20525;-64
2023/08/08 08:45:23;;;;;;;4.72;1.88;;;19.30;99.90;;;;;;4147340;28;20038;-65
2023/08/08 08:47:25;;;;;;;5.22;2.00;;;19.30;99.90;;;;;;4147412;28;20037;-65
2023/08/08 08:49:29;;;;;;;6.30;1.87;;;19.30;99.90;;;;;;4147127;28;20037;-64
2023/08/08 08:51:30;;;;;;;5.07;1.85;;;19.40;99.90;;;;;;4146457;28;20045;-65
2023/08/08 08:53:31;;;;;;;3.60;1.73;;;19.40;99.90;;;;;;4146654;28;20531;-64
2023/08/08 08:55:32;;;;;;;6.35;2.25;;;19.40;99.90;;;;;;4146775;28;20042;-65
2023/08/08 08:57:33;;;;;;;5.20;1.92;;;19.40;99.90;;;;;;4144882;28;20029;-65
2023/08/08 08:59:34;;;;;;;4.07;1.95;;;19.40;99.90;;;;;;4149162;28;20049;-64
2023/08/08 09:01:35;;;;;;;4.30;1.92;;;19.50;99.90;;;;;;4146606;28;20042;-65
2023/08/08 09:03:36;;;;;;;7.85;2.38;;;19.50;99.90;;;;;;4147847;28;21338;-65
2023/08/08 09:05:40;;;;;;;8.98;2.35;;;19.50;99.90;;;;;;4141159;28;20047;-64
2023/08/08 09:07:41;;;;;;;6.05;1.73;;;19.50;99.90;;;;;;4149571;28;20037;-65
2023/08/08 09:09:43;;;;;;;4.70;1.80;;;19.50;99.90;;;;;;4145561;28;20524;-64
2023/08/08 09:11:45;;;;;;;4.07;2.35;;;19.50;99.90;;;;;;4143574;28;20034;-64
2023/08/08 09:13:46;;;;;;;5.22;2.17;;;19.40;99.90;;;;;;4149209;28;20416;-65
2023/08/08 09:15:48;;;;;;;8.52;2.83;;;19.30;99.90;;;;;;4148515;28;20041;-64
2023/08/08 09:17:48;;;;;;;4.75;2.10;;;19.30;99.90;;;;;;4148466;28;20172;-64
2023/08/08 09:19:49;;;;;;;6.57;2.65;;;19.30;99.90;;;;;;4147419;28;20065;-64
2023/08/08 09:21:52;;;;;;;7.85;2.25;;;19.20;99.90;;;;;;4145279;28;20129;-65
2023/08/08 09:23:52;;;;;;;5.93;2.00;;;19.10;99.90;;;;;;4144822;28;20798;-65
2023/08/08 09:25:53;;;;;;;6.90;1.90;;;19.00;99.90;;;;;;4147121;28;20139;-65
2023/08/08 09:27:54;;;;;;;5.80;1.95;;;19.00;99.90;;;;;;4146727;28;20431;-65
2023/08/08 09:29:54;;;;;;;9.00;2.67;;;19.00;99.90;;;;;;4147373;28;20233;-64
2023/08/08 09:31:55;;;;;;;9.63;2.45;;;19.00;99.90;;;;;;4146254;28;20192;-65
2023/08/08 09:34:01;;;;;;;6.55;2.40;;;19.00;99.90;;;;;;4142062;28;20052;-65
2023/08/08 09:36:03;;;;;;;6.03;2.40;;;19.10;99.90;;;;;;4140848;28;20064;-65
2023/08/08 09:38:03;;;;;;;10.63;2.45;;;19.10;99.90;;;;;;4145370;28;20065;-66
2023/08/08 09:40:07;;;;;;;4.47;1.80;;;19.10;99.90;;;;;;4145061;28;20569;-67
2023/08/08 09:42:11;;;;;;;4.47;1.98;;;19.10;99.90;;;;;;4146271;28;20033;-66
2023/08/08 09:44:11;;;;;;;12.82;2.28;;;19.10;99.90;;;;;;4147755;28;20581;-66
2023/08/08 09:46:13;;;;;;;4.00;1.65;;;19.00;99.90;;;;;;4144741;28;20038;-66
2023/08/08 09:48:14;;;;;;;4.40;1.85;;;19.00;99.90;;;;;;4141107;28;20030;-66
2023/08/08 09:50:15;;;;;;;4.22;1.70;;;19.10;99.90;;;;;;4147403;28;20030;-66
2023/08/08 09:52:16;;;;;;;6.60;1.95;;;19.10;99.90;;;;;;4146412;28;20030;-65
2023/08/08 09:54:18;;;;;;;3.10;1.48;;;19.20;99.90;;;;;;4143172;28;20046;-66
2023/08/08 09:56:19;;;;;;;5.25;1.80;;;19.20;99.90;;;;;;4146530;28;20037;-67
2023/08/08 09:58:20;;;;;;;5.05;2.00;;;19.30;99.90;;;;;;4146628;28;20042;-66
2023/08/08 10:00:22;;;;;;;5.10;2.00;;;19.40;99.90;;;;;;4147679;28;20555;-66
2023/08/08 10:02:23;;;;;;;6.25;2.42;;;19.40;99.90;;;;;;4145184;28;20064;-66
2023/08/08 10:04:24;;;;;;;6.20;2.47;;;19.40;99.90;;;;;;4144735;28;20605;-66
2023/08/08 10:06:26;;;;;;;9.93;2.88;;;19.40;99.90;;;;;;4148973;28;20061;-66
2023/08/08 10:08:27;;;;;;;5.55;1.70;;;19.40;99.90;;;;;;4148875;28;20120;-66
2023/08/08 10:10:28;;;;;;;7.93;2.38;;;19.50;99.90;;;;;;4148969;28;20510;-66
2023/08/08 10:12:30;;;;;;;5.30;1.97;;;19.50;99.90;;;;;;4150357;28;20041;-66
2023/08/08 10:14:32;;;;;;;4.47;1.75;;;19.50;99.90;;;;;;4150854;28;20042;-66
2023/08/08 10:16:33;;;;;;;8.87;2.37;;;19.60;99.90;;;;;;4148386;28;20030;-66
2023/08/08 10:18:34;;;;;;;6.82;2.15;;;19.60;99.90;;;;;;4149879;28;20621;-66
2023/08/08 10:20:37;;;;;;;3.53;1.58;;;19.70;99.90;;;;;;4147057;28;20045;-66
2023/08/08 10:22:47;;;;;;;4.35;1.88;;;19.70;99.90;;;;;;4148495;28;20660;-66
2023/08/08 10:24:51;;;;;;;3.72;1.63;;;19.70;99.90;;;;;;4147187;28;20041;-66
2023/08/08 10:26:53;;;;;;;4.68;2.13;;;19.70;99.90;;;;;;4149570;28;20489;-66
2023/08/08 10:28:56;;;;;;;3.97;1.58;;;19.70;99.90;;;;;;4149082;28;20045;-67